sensor_id;sensor_type;location;lat;lon;timestamp;temperature;humidity
68128;SHT30;54931;52.098;21.006;2023-11-18T00:00:13;0.97;88.70
68128;SHT30;54931;52.098;21.006;2023-11-18T00:03:04;0.96;88.70
68128;SHT30;54931;52.098;21.006;2023-11-18T00:05:32;0.96;88.70
68128;SHT30;54931;52.098;21.006;2023-11-18T00:08:00;0.96;88.70
68128;SHT30;54931;52.098;21.006;2023-11-18T00:10:28;0.97;88.70
68128;SHT30;54931;52.098;21.006;2023-11-18T00:12:56;0.98;88.70
68128;SHT30;54931;52.098;21.006;2023-11-18T00:15:23;0.98;88.70
68128;SHT30;54931;52.098;21.006;2023-11-18T00:17:53;0.98;88.70
68128;SHT30;54931;52.098;21.006;2023-11-18T00:20:20;0.97;88.69
68128;SHT30;54931;52.098;21.006;2023-11-18T00:22:50;0.97;88.70
68128;SHT30;54931;52.098;21.006;2023-11-18T00:25:20;0.97;88.74
68128;SHT30;54931;52.098;21.006;2023-11-18T00:27:48;0.97;88.71
68128;SHT30;54931;52.098;21.006;2023-11-18T00:30:16;0.96;88.70
68128;SHT30;54931;52.098;21.006;2023-11-18T00:32:44;0.96;88.71
68128;SHT30;54931;52.098;21.006;2023-11-18T00:35:11;0.96;88.70
68128;SHT30;54931;52.098;21.006;2023-11-18T00:37:39;0.96;88.72
68128;SHT30;54931;52.098;21.006;2023-11-18T00:40:07;0.95;88.73
68128;SHT30;54931;52.098;21.006;2023-11-18T00:42:36;0.95;88.74
68128;SHT30;54931;52.098;21.006;2023-11-18T00:45:04;0.96;88.76
68128;SHT30;54931;52.098;21.006;2023-11-18T00:47:32;0.96;88.72
68128;SHT30;54931;52.098;21.006;2023-11-18T00:50:00;0.96;88.70
68128;SHT30;54931;52.098;21.006;2023-11-18T00:52:29;0.96;88.74
68128;SHT30;54931;52.098;21.006;2023-11-18T00:54:57;0.96;88.74
68128;SHT30;54931;52.098;21.006;2023-11-18T00:57:25;0.96;88.72
68128;SHT30;54931;52.098;21.006;2023-11-18T00:59:53;0.97;88.77
68128;SHT30;54931;52.098;21.006;2023-11-18T01:02:20;0.97;88.79
68128;SHT30;54931;52.098;21.006;2023-11-18T01:04:48;0.96;88.75
68128;SHT30;54931;52.098;21.006;2023-11-18T01:07:16;0.96;88.78
68128;SHT30;54931;52.098;21.006;2023-11-18T01:09:44;0.96;88.76
68128;SHT30;54931;52.098;21.006;2023-11-18T01:12:12;0.97;88.78
68128;SHT30;54931;52.098;21.006;2023-11-18T01:14:40;0.98;88.79
68128;SHT30;54931;52.098;21.006;2023-11-18T01:17:09;0.97;88.76
68128;SHT30;54931;52.098;21.006;2023-11-18T01:19:36;0.97;88.77
68128;SHT30;54931;52.098;21.006;2023-11-18T01:22:04;0.97;88.79
68128;SHT30;54931;52.098;21.006;2023-11-18T01:24:33;0.97;88.75
68128;SHT30;54931;52.098;21.006;2023-11-18T01:27:00;0.96;88.78
68128;SHT30;54931;52.098;21.006;2023-11-18T01:29:28;0.96;88.75
68128;SHT30;54931;52.098;21.006;2023-11-18T01:31:56;0.96;88.74
68128;SHT30;54931;52.098;21.006;2023-11-18T01:34:24;0.96;88.73
68128;SHT30;54931;52.098;21.006;2023-11-18T01:36:52;0.95;88.74
68128;SHT30;54931;52.098;21.006;2023-11-18T01:39:20;0.96;88.79
68128;SHT30;54931;52.098;21.006;2023-11-18T01:41:47;0.95;88.79
68128;SHT30;54931;52.098;21.006;2023-11-18T01:44:16;0.95;88.79
68128;SHT30;54931;52.098;21.006;2023-11-18T01:46:46;0.94;88.79
68128;SHT30;54931;52.098;21.006;2023-11-18T01:49:14;0.94;88.80
68128;SHT30;54931;52.098;21.006;2023-11-18T01:51:42;0.94;88.78
68128;SHT30;54931;52.098;21.006;2023-11-18T01:54:13;0.96;88.80
68128;SHT30;54931;52.098;21.006;2023-11-18T01:56:47;0.94;88.79
68128;SHT30;54931;52.098;21.006;2023-11-18T01:59:16;0.94;88.77
68128;SHT30;54931;52.098;21.006;2023-11-18T02:01:47;0.94;88.79
68128;SHT30;54931;52.098;21.006;2023-11-18T02:04:18;0.95;88.79
68128;SHT30;54931;52.098;21.006;2023-11-18T02:06:49;0.94;88.77
68128;SHT30;54931;52.098;21.006;2023-11-18T02:09:19;0.93;88.80
68128;SHT30;54931;52.098;21.006;2023-11-18T02:15:04;0.93;88.80
68128;SHT30;54931;52.098;21.006;2023-11-18T02:17:39;0.92;88.80
68128;SHT30;54931;52.098;21.006;2023-11-18T02:20:10;0.93;88.80
68128;SHT30;54931;52.098;21.006;2023-11-18T02:22:48;0.92;88.81
68128;SHT30;54931;52.098;21.006;2023-11-18T02:25:16;0.92;88.80
68128;SHT30;54931;52.098;21.006;2023-11-18T02:27:45;0.93;88.80
68128;SHT30;54931;52.098;21.006;2023-11-18T02:30:14;0.92;88.80
68128;SHT30;54931;52.098;21.006;2023-11-18T02:32:45;0.93;88.80
68128;SHT30;54931;52.098;21.006;2023-11-18T02:35:24;0.93;88.81
68128;SHT30;54931;52.098;21.006;2023-11-18T02:37:58;0.94;88.80
68128;SHT30;54931;52.098;21.006;2023-11-18T02:40:32;0.95;88.80
68128;SHT30;54931;52.098;21.006;2023-11-18T02:43:06;0.95;88.80
68128;SHT30;54931;52.098;21.006;2023-11-18T02:45:36;0.95;88.80
68128;SHT30;54931;52.098;21.006;2023-11-18T02:48:05;0.95;88.80
68128;SHT30;54931;52.098;21.006;2023-11-18T02:50:33;0.96;88.80
68128;SHT30;54931;52.098;21.006;2023-11-18T02:53:02;0.96;88.80
68128;SHT30;54931;52.098;21.006;2023-11-18T02:55:31;0.95;88.80
68128;SHT30;54931;52.098;21.006;2023-11-18T02:57:58;0.95;88.79
68128;SHT30;54931;52.098;21.006;2023-11-18T03:00:26;0.94;88.80
68128;SHT30;54931;52.098;21.006;2023-11-18T03:02:55;0.94;88.80
68128;SHT30;54931;52.098;21.006;2023-11-18T03:05:23;0.94;88.80
68128;SHT30;54931;52.098;21.006;2023-11-18T03:07:53;0.93;88.79
68128;SHT30;54931;52.098;21.006;2023-11-18T03:10:22;0.93;88.80
68128;SHT30;54931;52.098;21.006;2023-11-18T03:12:50;0.93;88.80
68128;SHT30;54931;52.098;21.006;2023-11-18T03:15:20;0.93;88.82
68128;SHT30;54931;52.098;21.006;2023-11-18T03:17:50;0.94;88.82
68128;SHT30;54931;52.098;21.006;2023-11-18T03:20:18;0.93;88.80
68128;SHT30;54931;52.098;21.006;2023-11-18T03:22:50;0.93;88.81
68128;SHT30;54931;52.098;21.006;2023-11-18T03:25:18;0.94;88.83
68128;SHT30;54931;52.098;21.006;2023-11-18T03:27:48;0.93;88.80
68128;SHT30;54931;52.098;21.006;2023-11-18T03:30:16;0.93;88.80
68128;SHT30;54931;52.098;21.006;2023-11-18T03:32:46;0.94;88.80
68128;SHT30;54931;52.098;21.006;2023-11-18T03:35:13;0.93;88.80
68128;SHT30;54931;52.098;21.006;2023-11-18T03:37:41;0.93;88.81
68128;SHT30;54931;52.098;21.006;2023-11-18T03:40:13;0.93;88.82
68128;SHT30;54931;52.098;21.006;2023-11-18T03:42:41;0.92;88.85
68128;SHT30;54931;52.098;21.006;2023-11-18T03:45:09;0.93;88.85
68128;SHT30;54931;52.098;21.006;2023-11-18T03:47:37;0.92;88.90
68128;SHT30;54931;52.098;21.006;2023-11-18T03:50:05;0.92;88.88
68128;SHT30;54931;52.098;21.006;2023-11-18T03:52:36;0.93;88.89
68128;SHT30;54931;52.098;21.006;2023-11-18T03:55:05;0.94;88.89
68128;SHT30;54931;52.098;21.006;2023-11-18T03:57:34;0.94;88.81
68128;SHT30;54931;52.098;21.006;2023-11-18T04:00:02;0.93;88.88
68128;SHT30;54931;52.098;21.006;2023-11-18T04:02:30;0.93;88.90
68128;SHT30;54931;52.098;21.006;2023-11-18T04:04:58;0.93;88.88
68128;SHT30;54931;52.098;21.006;2023-11-18T04:07:25;0.93;88.88
68128;SHT30;54931;52.098;21.006;2023-11-18T04:09:53;0.94;88.87
68128;SHT30;54931;52.098;21.006;2023-11-18T04:12:21;0.94;88.89
68128;SHT30;54931;52.098;21.006;2023-11-18T04:14:54;0.92;88.87
68128;SHT30;54931;52.098;21.006;2023-11-18T04:17:21;0.92;88.86
68128;SHT30;54931;52.098;21.006;2023-11-18T04:19:48;0.90;88.89
68128;SHT30;54931;52.098;21.006;2023-11-18T04:22:16;0.89;88.89
68128;SHT30;54931;52.098;21.006;2023-11-18T04:24:46;0.89;88.90
68128;SHT30;54931;52.098;21.006;2023-11-18T04:27:14;0.90;88.90
68128;SHT30;54931;52.098;21.006;2023-11-18T04:29:42;0.90;88.91
68128;SHT30;54931;52.098;21.006;2023-11-18T04:32:10;0.89;88.90
68128;SHT30;54931;52.098;21.006;2023-11-18T04:34:37;0.90;88.90
68128;SHT30;54931;52.098;21.006;2023-11-18T04:37:05;0.91;88.90
68128;SHT30;54931;52.098;21.006;2023-11-18T04:39:33;0.90;88.91
68128;SHT30;54931;52.098;21.006;2023-11-18T04:42:01;0.90;88.89
68128;SHT30;54931;52.098;21.006;2023-11-18T04:44:29;0.91;88.88
68128;SHT30;54931;52.098;21.006;2023-11-18T04:46:58;0.90;88.85
68128;SHT30;54931;52.098;21.006;2023-11-18T04:49:26;0.91;88.85
68128;SHT30;54931;52.098;21.006;2023-11-18T04:51:53;0.90;88.88
68128;SHT30;54931;52.098;21.006;2023-11-18T04:54:21;0.89;88.87
68128;SHT30;54931;52.098;21.006;2023-11-18T04:56:48;0.88;88.86
68128;SHT30;54931;52.098;21.006;2023-11-18T04:59:16;0.88;88.88
68128;SHT30;54931;52.098;21.006;2023-11-18T05:01:44;0.88;88.89
68128;SHT30;54931;52.098;21.006;2023-11-18T05:04:12;0.87;88.88
68128;SHT30;54931;52.098;21.006;2023-11-18T05:06:40;0.88;88.90
68128;SHT30;54931;52.098;21.006;2023-11-18T05:09:07;0.86;88.90
68128;SHT30;54931;52.098;21.006;2023-11-18T05:11:34;0.86;88.90
68128;SHT30;54931;52.098;21.006;2023-11-18T05:14:02;0.86;88.89
68128;SHT30;54931;52.098;21.006;2023-11-18T05:16:31;0.86;88.90
68128;SHT30;54931;52.098;21.006;2023-11-18T05:18:58;0.85;88.89
68128;SHT30;54931;52.098;21.006;2023-11-18T05:21:26;0.85;88.90
68128;SHT30;54931;52.098;21.006;2023-11-18T05:23:53;0.86;88.90
68128;SHT30;54931;52.098;21.006;2023-11-18T05:26:21;0.85;88.90
68128;SHT30;54931;52.098;21.006;2023-11-18T05:28:48;0.85;88.89
68128;SHT30;54931;52.098;21.006;2023-11-18T05:31:17;0.84;88.90
68128;SHT30;54931;52.098;21.006;2023-11-18T05:33:44;0.84;88.90
68128;SHT30;54931;52.098;21.006;2023-11-18T05:36:18;0.83;88.89
68128;SHT30;54931;52.098;21.006;2023-11-18T05:38:54;0.84;88.90
68128;SHT30;54931;52.098;21.006;2023-11-18T05:41:22;0.83;88.90
68128;SHT30;54931;52.098;21.006;2023-11-18T05:43:57;0.84;88.90
68128;SHT30;54931;52.098;21.006;2023-11-18T05:46:25;0.83;88.90
68128;SHT30;54931;52.098;21.006;2023-11-18T05:48:56;0.83;88.90
68128;SHT30;54931;52.098;21.006;2023-11-18T05:51:26;0.84;88.90
68128;SHT30;54931;52.098;21.006;2023-11-18T05:53:56;0.83;88.90
68128;SHT30;54931;52.098;21.006;2023-11-18T05:56:23;0.84;88.88
68128;SHT30;54931;52.098;21.006;2023-11-18T05:58:53;0.83;88.90
68128;SHT30;54931;52.098;21.006;2023-11-18T06:01:20;0.83;88.88
68128;SHT30;54931;52.098;21.006;2023-11-18T06:03:49;0.83;88.88
68128;SHT30;54931;52.098;21.006;2023-11-18T06:06:17;0.82;88.90
68128;SHT30;54931;52.098;21.006;2023-11-18T06:08:44;0.81;88.90
68128;SHT30;54931;52.098;21.006;2023-11-18T06:11:14;0.81;88.90
68128;SHT30;54931;52.098;21.006;2023-11-18T06:13:43;0.81;88.90
68128;SHT30;54931;52.098;21.006;2023-11-18T06:16:16;0.80;88.90
68128;SHT30;54931;52.098;21.006;2023-11-18T06:18:53;0.80;88.90
68128;SHT30;54931;52.098;21.006;2023-11-18T06:21:23;0.80;88.91
68128;SHT30;54931;52.098;21.006;2023-11-18T06:23:59;0.82;88.92
68128;SHT30;54931;52.098;21.006;2023-11-18T06:26:28;0.81;88.87
68128;SHT30;54931;52.098;21.006;2023-11-18T06:28:56;0.81;88.87
68128;SHT30;54931;52.098;21.006;2023-11-18T06:31:24;0.82;88.90
68128;SHT30;54931;52.098;21.006;2023-11-18T06:33:51;0.84;88.91
68128;SHT30;54931;52.098;21.006;2023-11-18T06:36:19;0.85;88.87
68128;SHT30;54931;52.098;21.006;2023-11-18T06:38:48;0.85;88.83
68128;SHT30;54931;52.098;21.006;2023-11-18T06:41:21;0.88;88.85
68128;SHT30;54931;52.098;21.006;2023-11-18T06:43:50;0.89;88.81
68128;SHT30;54931;52.098;21.006;2023-11-18T06:48:53;0.93;88.78
68128;SHT30;54931;52.098;21.006;2023-11-18T06:51:21;0.95;88.78
68128;SHT30;54931;52.098;21.006;2023-11-18T06:53:52;0.96;88.63
68128;SHT30;54931;52.098;21.006;2023-11-18T06:56:24;1.00;88.70
68128;SHT30;54931;52.098;21.006;2023-11-18T06:58:53;1.01;88.66
68128;SHT30;54931;52.098;21.006;2023-11-18T07:01:21;1.04;88.63
68128;SHT30;54931;52.098;21.006;2023-11-18T07:03:50;1.06;88.61
68128;SHT30;54931;52.098;21.006;2023-11-18T07:06:20;1.08;88.50
68128;SHT30;54931;52.098;21.006;2023-11-18T07:08:53;1.10;88.48
68128;SHT30;54931;52.098;21.006;2023-11-18T07:11:27;1.12;88.42
68128;SHT30;54931;52.098;21.006;2023-11-18T07:13:55;1.18;88.48
68128;SHT30;54931;52.098;21.006;2023-11-18T07:16:24;1.22;88.40
68128;SHT30;54931;52.098;21.006;2023-11-18T07:18:52;1.25;88.22
68128;SHT30;54931;52.098;21.006;2023-11-18T07:21:20;1.27;88.11
68128;SHT30;54931;52.098;21.006;2023-11-18T07:23:47;1.28;87.97
68128;SHT30;54931;52.098;21.006;2023-11-18T07:26:15;1.30;87.99
68128;SHT30;54931;52.098;21.006;2023-11-18T07:28:43;1.32;87.99
68128;SHT30;54931;52.098;21.006;2023-11-18T07:31:11;1.35;87.97
68128;SHT30;54931;52.098;21.006;2023-11-18T07:33:39;1.37;87.84
68128;SHT30;54931;52.098;21.006;2023-11-18T07:36:07;1.37;87.68
68128;SHT30;54931;52.098;21.006;2023-11-18T07:38:37;1.39;87.80
68128;SHT30;54931;52.098;21.006;2023-11-18T07:41:06;1.43;87.76
68128;SHT30;54931;52.098;21.006;2023-11-18T07:43:35;1.45;87.55
68128;SHT30;54931;52.098;21.006;2023-11-18T07:46:04;1.47;87.53
68128;SHT30;54931;52.098;21.006;2023-11-18T07:48:34;1.50;87.53
68128;SHT30;54931;52.098;21.006;2023-11-18T07:51:02;1.54;87.52
68128;SHT30;54931;52.098;21.006;2023-11-18T07:53:30;1.57;87.40
68128;SHT30;54931;52.098;21.006;2023-11-18T07:55:58;1.58;87.19
68128;SHT30;54931;52.098;21.006;2023-11-18T07:58:28;1.56;87.13
68128;SHT30;54931;52.098;21.006;2023-11-18T08:00:56;1.57;87.13
68128;SHT30;54931;52.098;21.006;2023-11-18T08:03:23;1.54;86.87
68128;SHT30;54931;52.098;21.006;2023-11-18T08:05:51;1.48;86.67
68128;SHT30;54931;52.098;21.006;2023-11-18T08:08:19;1.46;86.88
68128;SHT30;54931;52.098;21.006;2023-11-18T08:10:48;1.43;86.71
68128;SHT30;54931;52.098;21.006;2023-11-18T08:13:17;1.39;86.69
68128;SHT30;54931;52.098;21.006;2023-11-18T08:15:45;1.36;86.75
68128;SHT30;54931;52.098;21.006;2023-11-18T08:18:13;1.33;86.82
68128;SHT30;54931;52.098;21.006;2023-11-18T08:20:41;1.32;86.89
68128;SHT30;54931;52.098;21.006;2023-11-18T08:23:10;1.31;86.80
68128;SHT30;54931;52.098;21.006;2023-11-18T08:25:38;1.29;86.89
68128;SHT30;54931;52.098;21.006;2023-11-18T08:28:08;1.32;87.05
68128;SHT30;54931;52.098;21.006;2023-11-18T08:30:39;1.33;86.89
68128;SHT30;54931;52.098;21.006;2023-11-18T08:33:07;1.35;86.95
68128;SHT30;54931;52.098;21.006;2023-11-18T08:35:37;1.35;86.85
68128;SHT30;54931;52.098;21.006;2023-11-18T08:38:07;1.34;86.79
68128;SHT30;54931;52.098;21.006;2023-11-18T08:40:35;1.34;86.81
68128;SHT30;54931;52.098;21.006;2023-11-18T08:43:03;1.34;86.80
68128;SHT30;54931;52.098;21.006;2023-11-18T08:45:32;1.31;86.70
68128;SHT30;54931;52.098;21.006;2023-11-18T08:48:01;1.30;86.72
68128;SHT30;54931;52.098;21.006;2023-11-18T08:50:37;1.34;86.90
68128;SHT30;54931;52.098;21.006;2023-11-18T08:53:06;1.36;86.89
68128;SHT30;54931;52.098;21.006;2023-11-18T08:55:37;1.39;86.80
68128;SHT30;54931;52.098;21.006;2023-11-18T08:58:06;1.40;86.75
68128;SHT30;54931;52.098;21.006;2023-11-18T09:00:57;1.43;86.77
68128;SHT30;54931;52.098;21.006;2023-11-18T09:03:41;1.43;86.58
68128;SHT30;54931;52.098;21.006;2023-11-18T09:06:19;1.46;86.64
68128;SHT30;54931;52.098;21.006;2023-11-18T09:08:54;1.46;86.52
68128;SHT30;54931;52.098;21.006;2023-11-18T09:11:24;1.50;86.56
68128;SHT30;54931;52.098;21.006;2023-11-18T09:13:59;1.53;86.42
68128;SHT30;54931;52.098;21.006;2023-11-18T09:16:27;1.53;86.24
68128;SHT30;54931;52.098;21.006;2023-11-18T09:19:00;1.53;86.21
68128;SHT30;54931;52.098;21.006;2023-11-18T09:21:30;1.58;86.30
68128;SHT30;54931;52.098;21.006;2023-11-18T09:24:02;1.62;86.18
68128;SHT30;54931;52.098;21.006;2023-11-18T09:26:31;1.61;85.89
68128;SHT30;54931;52.098;21.006;2023-11-18T09:28:59;1.62;85.99
68128;SHT30;54931;52.098;21.006;2023-11-18T09:31:28;1.65;85.93
68128;SHT30;54931;52.098;21.006;2023-11-18T09:33:58;1.63;85.59
68128;SHT30;54931;52.098;21.006;2023-11-18T09:36:27;1.60;85.45
68128;SHT30;54931;52.098;21.006;2023-11-18T09:38:55;1.59;85.62
68128;SHT30;54931;52.098;21.006;2023-11-18T09:41:24;1.61;85.72
68128;SHT30;54931;52.098;21.006;2023-11-18T09:43:54;1.63;85.62
68128;SHT30;54931;52.098;21.006;2023-11-18T09:46:23;1.65;85.44
68128;SHT30;54931;52.098;21.006;2023-11-18T09:51:44;1.74;85.52
68128;SHT30;54931;52.098;21.006;2023-11-18T10:00:16;1.86;85.32
68128;SHT30;54931;52.098;21.006;2023-11-18T10:02:49;1.88;85.15
68128;SHT30;54931;52.098;21.006;2023-11-18T10:05:19;1.90;85.32
68128;SHT30;54931;52.098;21.006;2023-11-18T10:07:48;1.89;84.78
68128;SHT30;54931;52.098;21.006;2023-11-18T10:10:18;1.83;84.67
68128;SHT30;54931;52.098;21.006;2023-11-18T10:12:47;1.79;84.82
68128;SHT30;54931;52.098;21.006;2023-11-18T10:15:21;1.80;84.97
68128;SHT30;54931;52.098;21.006;2023-11-18T10:17:51;1.79;84.93
68128;SHT30;54931;52.098;21.006;2023-11-18T10:20:49;1.77;84.88
68128;SHT30;54931;52.098;21.006;2023-11-18T10:23:19;1.78;85.11
68128;SHT30;54931;52.098;21.006;2023-11-18T10:25:52;1.78;84.99
68128;SHT30;54931;52.098;21.006;2023-11-18T10:30:56;1.73;84.89
68128;SHT30;54931;52.098;21.006;2023-11-18T10:33:36;1.69;84.79
68128;SHT30;54931;52.098;21.006;2023-11-18T10:36:21;1.68;84.74
68128;SHT30;54931;52.098;21.006;2023-11-18T10:38:52;1.65;84.93
68128;SHT30;54931;52.098;21.006;2023-11-18T10:41:24;1.68;85.02
68128;SHT30;54931;52.098;21.006;2023-11-18T10:44:27;1.72;85.11
68128;SHT30;54931;52.098;21.006;2023-11-18T10:46:52;1.75;84.99
68128;SHT30;54931;52.098;21.006;2023-11-18T10:49:21;1.79;85.13
68128;SHT30;54931;52.098;21.006;2023-11-18T10:51:53;1.87;85.04
68128;SHT30;54931;52.098;21.006;2023-11-18T10:54:23;1.90;84.76
68128;SHT30;54931;52.098;21.006;2023-11-18T10:56:53;1.92;84.82
68128;SHT30;54931;52.098;21.006;2023-11-18T10:59:24;1.96;84.89
68128;SHT30;54931;52.098;21.006;2023-11-18T11:01:53;1.99;84.65
68128;SHT30;54931;52.098;21.006;2023-11-18T11:04:25;2.02;84.68
68128;SHT30;54931;52.098;21.006;2023-11-18T11:06:52;2.01;84.31
68128;SHT30;54931;52.098;21.006;2023-11-18T11:09:21;2.02;84.39
68128;SHT30;54931;52.098;21.006;2023-11-18T11:12:04;2.03;84.46
68128;SHT30;54931;52.098;21.006;2023-11-18T11:14:57;2.10;84.49
68128;SHT30;54931;52.098;21.006;2023-11-18T11:17:31;2.11;83.98
68128;SHT30;54931;52.098;21.006;2023-11-18T11:20:07;2.11;83.97
68128;SHT30;54931;52.098;21.006;2023-11-18T11:28:42;2.19;83.82
68128;SHT30;54931;52.098;21.006;2023-11-18T11:35:01;2.11;83.81
68128;SHT30;54931;52.098;21.006;2023-11-18T11:37:35;2.05;83.59
68128;SHT30;54931;52.098;21.006;2023-11-18T11:40:07;2.01;83.78
68128;SHT30;54931;52.098;21.006;2023-11-18T11:42:38;2.03;84.16
68128;SHT30;54931;52.098;21.006;2023-11-18T11:45:09;2.09;84.32
68128;SHT30;54931;52.098;21.006;2023-11-18T11:47:49;2.12;84.09
68128;SHT30;54931;52.098;21.006;2023-11-18T11:50:21;2.10;83.90
68128;SHT30;54931;52.098;21.006;2023-11-18T11:53:03;2.07;83.91
68128;SHT30;54931;52.098;21.006;2023-11-18T11:55:52;2.02;83.87
68128;SHT30;54931;52.098;21.006;2023-11-18T11:58:30;1.93;83.70
68128;SHT30;54931;52.098;21.006;2023-11-18T12:04:04;1.86;84.11
68128;SHT30;54931;52.098;21.006;2023-11-18T12:06:43;1.85;84.27
68128;SHT30;54931;52.098;21.006;2023-11-18T12:09:14;1.86;84.33
68128;SHT30;54931;52.098;21.006;2023-11-18T12:11:47;1.88;84.50
68128;SHT30;54931;52.098;21.006;2023-11-18T12:14:16;1.91;84.34
68128;SHT30;54931;52.098;21.006;2023-11-18T12:17:06;1.90;84.19
68128;SHT30;54931;52.098;21.006;2023-11-18T12:19:41;1.92;84.40
68128;SHT30;54931;52.098;21.006;2023-11-18T12:22:18;1.93;84.45
68128;SHT30;54931;52.098;21.006;2023-11-18T12:41:40;1.78;84.71
68128;SHT30;54931;52.098;21.006;2023-11-18T12:47:02;1.72;84.73
68128;SHT30;54931;52.098;21.006;2023-11-18T12:49:48;1.71;84.80
68128;SHT30;54931;52.098;21.006;2023-11-18T12:52:22;1.70;84.93
68128;SHT30;54931;52.098;21.006;2023-11-18T12:54:51;1.70;84.96
68128;SHT30;54931;52.098;21.006;2023-11-18T12:57:29;1.69;84.91
68128;SHT30;54931;52.098;21.006;2023-11-18T13:00:05;1.67;84.98
68128;SHT30;54931;52.098;21.006;2023-11-18T13:02:34;1.65;85.01
68128;SHT30;54931;52.098;21.006;2023-11-18T13:05:05;1.63;85.01
68128;SHT30;54931;52.098;21.006;2023-11-18T13:07:37;1.62;85.09
68128;SHT30;54931;52.098;21.006;2023-11-18T13:10:06;1.61;85.17
68128;SHT30;54931;52.098;21.006;2023-11-18T13:12:35;1.58;85.20
68128;SHT30;54931;52.098;21.006;2023-11-18T13:15:03;1.56;85.29
68128;SHT30;54931;52.098;21.006;2023-11-18T13:17:35;1.54;85.29
68128;SHT30;54931;52.098;21.006;2023-11-18T13:20:12;1.52;85.33
68128;SHT30;54931;52.098;21.006;2023-11-18T13:22:42;1.51;85.47
68128;SHT30;54931;52.098;21.006;2023-11-18T13:25:11;1.50;85.54
68128;SHT30;54931;52.098;21.006;2023-11-18T13:27:41;1.50;85.54
68128;SHT30;54931;52.098;21.006;2023-11-18T13:30:09;1.46;85.50
68128;SHT30;54931;52.098;21.006;2023-11-18T13:32:41;1.43;85.55
68128;SHT30;54931;52.098;21.006;2023-11-18T13:35:09;1.41;85.65
68128;SHT30;54931;52.098;21.006;2023-11-18T13:37:41;1.38;85.67
68128;SHT30;54931;52.098;21.006;2023-11-18T13:40:09;1.36;85.70
68128;SHT30;54931;52.098;21.006;2023-11-18T13:42:40;1.34;85.76
68128;SHT30;54931;52.098;21.006;2023-11-18T13:45:11;1.32;85.82
68128;SHT30;54931;52.098;21.006;2023-11-18T13:47:50;1.31;85.88
68128;SHT30;54931;52.098;21.006;2023-11-18T13:50:22;1.28;85.87
68128;SHT30;54931;52.098;21.006;2023-11-18T13:52:50;1.27;85.98
68128;SHT30;54931;52.098;21.006;2023-11-18T13:55:18;1.27;86.01
68128;SHT30;54931;52.098;21.006;2023-11-18T13:57:54;1.24;86.08
68128;SHT30;54931;52.098;21.006;2023-11-18T14:00:25;1.24;86.15
68128;SHT30;54931;52.098;21.006;2023-11-18T14:02:55;1.25;86.23
68128;SHT30;54931;52.098;21.006;2023-11-18T14:05:24;1.24;86.29
68128;SHT30;54931;52.098;21.006;2023-11-18T14:07:52;1.25;86.30
68128;SHT30;54931;52.098;21.006;2023-11-18T14:10:28;1.23;86.31
68128;SHT30;54931;52.098;21.006;2023-11-18T14:15:27;1.16;86.30
68128;SHT30;54931;52.098;21.006;2023-11-18T14:17:56;1.12;86.39
68128;SHT30;54931;52.098;21.006;2023-11-18T14:20:24;1.10;86.43
68128;SHT30;54931;52.098;21.006;2023-11-18T14:22:52;1.05;86.46
68128;SHT30;54931;52.098;21.006;2023-11-18T14:25:21;1.00;86.44
68128;SHT30;54931;52.098;21.006;2023-11-18T14:27:50;0.96;86.46
68128;SHT30;54931;52.098;21.006;2023-11-18T14:30:18;0.92;86.51
68128;SHT30;54931;52.098;21.006;2023-11-18T14:32:46;0.89;86.61
68128;SHT30;54931;52.098;21.006;2023-11-18T14:35:13;0.84;86.65
68128;SHT30;54931;52.098;21.006;2023-11-18T14:37:46;0.82;86.71
68128;SHT30;54931;52.098;21.006;2023-11-18T14:40:15;0.80;86.77
68128;SHT30;54931;52.098;21.006;2023-11-18T14:42:43;0.78;86.82
68128;SHT30;54931;52.098;21.006;2023-11-18T14:45:13;0.75;86.86
68128;SHT30;54931;52.098;21.006;2023-11-18T14:47:43;0.75;86.97
68128;SHT30;54931;52.098;21.006;2023-11-18T14:50:18;0.75;87.02
68128;SHT30;54931;52.098;21.006;2023-11-18T14:52:47;0.75;87.07
68128;SHT30;54931;52.098;21.006;2023-11-18T14:55:18;0.73;87.11
68128;SHT30;54931;52.098;21.006;2023-11-18T14:57:46;0.71;87.09
68128;SHT30;54931;52.098;21.006;2023-11-18T15:00:13;0.69;87.15
68128;SHT30;54931;52.098;21.006;2023-11-18T15:02:49;0.69;87.20
68128;SHT30;54931;52.098;21.006;2023-11-18T15:05:18;0.67;87.21
68128;SHT30;54931;52.098;21.006;2023-11-18T15:07:49;0.67;87.26
68128;SHT30;54931;52.098;21.006;2023-11-18T15:10:20;0.67;87.29
68128;SHT30;54931;52.098;21.006;2023-11-18T15:12:50;0.65;87.30
68128;SHT30;54931;52.098;21.006;2023-11-18T15:15:28;0.66;87.34
68128;SHT30;54931;52.098;21.006;2023-11-18T15:18:01;0.67;87.37
68128;SHT30;54931;52.098;21.006;2023-11-18T15:20:32;0.67;87.38
68128;SHT30;54931;52.098;21.006;2023-11-18T15:23:03;0.67;87.38
68128;SHT30;54931;52.098;21.006;2023-11-18T15:25:31;0.66;87.40
68128;SHT30;54931;52.098;21.006;2023-11-18T15:27:59;0.65;87.41
68128;SHT30;54931;52.098;21.006;2023-11-18T15:30:27;0.65;87.40
68128;SHT30;54931;52.098;21.006;2023-11-18T15:32:56;0.65;87.41
68128;SHT30;54931;52.098;21.006;2023-11-18T15:35:23;0.64;87.43
68128;SHT30;54931;52.098;21.006;2023-11-18T15:37:52;0.65;87.47
68128;SHT30;54931;52.098;21.006;2023-11-18T15:40:20;0.66;87.47
68128;SHT30;54931;52.098;21.006;2023-11-18T15:42:52;0.65;87.41
68128;SHT30;54931;52.098;21.006;2023-11-18T15:45:21;0.65;87.44
68128;SHT30;54931;52.098;21.006;2023-11-18T15:47:56;0.66;87.46
68128;SHT30;54931;52.098;21.006;2023-11-18T15:50:26;0.65;87.39
68128;SHT30;54931;52.098;21.006;2023-11-18T15:52:56;0.63;87.31
68128;SHT30;54931;52.098;21.006;2023-11-18T15:55:23;0.61;87.30
68128;SHT30;54931;52.098;21.006;2023-11-18T15:57:52;0.60;87.30
68128;SHT30;54931;52.098;21.006;2023-11-18T16:00:20;0.56;87.28
68128;SHT30;54931;52.098;21.006;2023-11-18T16:02:54;0.55;87.31
68128;SHT30;54931;52.098;21.006;2023-11-18T16:05:26;0.54;87.37
68128;SHT30;54931;52.098;21.006;2023-11-18T16:08:00;0.54;87.40
68128;SHT30;54931;52.098;21.006;2023-11-18T16:10:33;0.55;87.48
68128;SHT30;54931;52.098;21.006;2023-11-18T16:13:01;0.56;87.50
68128;SHT30;54931;52.098;21.006;2023-11-18T16:15:29;0.56;87.50
68128;SHT30;54931;52.098;21.006;2023-11-18T16:17:59;0.57;87.50
68128;SHT30;54931;52.098;21.006;2023-11-18T16:20:28;0.59;87.53
68128;SHT30;54931;52.098;21.006;2023-11-18T16:23:01;0.59;87.50
68128;SHT30;54931;52.098;21.006;2023-11-18T16:25:32;0.60;87.52
68128;SHT30;54931;52.098;21.006;2023-11-18T16:28:04;0.61;87.53
68128;SHT30;54931;52.098;21.006;2023-11-18T16:30:34;0.60;87.55
68128;SHT30;54931;52.098;21.006;2023-11-18T16:33:01;0.62;87.56
68128;SHT30;54931;52.098;21.006;2023-11-18T16:35:30;0.61;87.50
68128;SHT30;54931;52.098;21.006;2023-11-18T16:37:57;0.61;87.50
68128;SHT30;54931;52.098;21.006;2023-11-18T16:40:26;0.59;87.49